createdAt,value
2023-02-16T00:00:29.191Z,102008.63
2023-02-16T00:02:56.056Z,102013.22
2023-02-16T00:05:28.602Z,102015.94
2023-02-16T00:07:56.368Z,102022.78
2023-02-16T00:10:24.839Z,102017.50
2023-02-16T00:13:11.310Z,102027.06
2023-02-16T00:15:37.848Z,102024.06
2023-02-16T00:18:14.578Z,102024.81
2023-02-16T00:20:40.995Z,102015.16
2023-02-16T00:23:07.368Z,102015.66
2023-02-16T00:25:33.997Z,102005.31
2023-02-16T00:28:14.469Z,102020.72
2023-02-16T00:30:41.222Z,102014.56
2023-02-16T00:33:19.575Z,102018.16
2023-02-16T00:35:46.200Z,102016.34
2023-02-16T00:38:13.279Z,102013.59
2023-02-16T00:40:41.667Z,102010.94
2023-02-16T00:43:13.444Z,102009.25
2023-02-16T00:45:39.860Z,102017.09
2023-02-16T00:48:06.279Z,102011.69
2023-02-16T00:50:34.196Z,102006.38
2023-02-16T00:53:02.724Z,102000.31
2023-02-16T00:55:35.242Z,101999.66
2023-02-16T00:58:28.295Z,101998.50
2023-02-16T01:01:02.996Z,101988.28
2023-02-16T01:03:29.927Z,101994.44
2023-02-16T01:06:25.827Z,101995.28
2023-02-16T01:09:13.221Z,101974.59
2023-02-16T01:11:39.699Z,101987.34
2023-02-16T01:14:06.173Z,101991.97
2023-02-16T01:16:42.659Z,101994.53
2023-02-16T01:19:11.861Z,101979.91
2023-02-16T01:21:39.153Z,101991.03
2023-02-16T01:24:05.806Z,101982.38
2023-02-16T01:26:41.706Z,101975.28
2023-02-16T01:29:15.311Z,101982.28
2023-02-16T01:31:42.011Z,101981.53
2023-02-16T01:34:08.715Z,101976.59
2023-02-16T01:36:41.709Z,101968.81
2023-02-16T01:39:11.423Z,101978.19
2023-02-16T01:42:01.225Z,101970.34
2023-02-16T01:44:34.399Z,101974.78
2023-02-16T01:47:42.047Z,101966.53
2023-02-16T01:50:20.179Z,101948.78
2023-02-16T01:52:55.843Z,101974.59
2023-02-16T01:55:28.433Z,101939.75
2023-02-16T01:58:06.974Z,101973.72
2023-02-16T02:00:57.249Z,101977.94
2023-02-16T02:03:42.341Z,101978.34
2023-02-16T02:06:11.760Z,101974.50
2023-02-16T02:09:08.270Z,101971.59
2023-02-16T02:11:45.494Z,101931.53
2023-02-16T02:14:17.743Z,101967.22
2023-02-16T02:16:58.771Z,101958.09
2023-02-16T02:19:25.401Z,101940.66
2023-02-16T02:22:29.649Z,101964.31
2023-02-16T02:25:14.047Z,101945.63
2023-02-16T02:27:52.581Z,101969.78
2023-02-16T02:30:37.648Z,101969.78
2023-02-16T02:33:38.263Z,101963.47
2023-02-16T02:36:14.262Z,101973.31
2023-02-16T02:38:56.118Z,101962.09
2023-02-16T02:41:54.403Z,101966.38
2023-02-16T02:44:23.952Z,101971.09
2023-02-16T02:46:51.237Z,101973.94
2023-02-16T02:49:17.692Z,101964.84
2023-02-16T02:51:44.179Z,101941.84
2023-02-16T02:54:42.310Z,101921.97
2023-02-16T02:57:50.428Z,101941.50
2023-02-16T03:00:43.798Z,101951.88
2023-02-16T03:03:19.334Z,101940.31
2023-02-16T03:05:53.139Z,101911.59
2023-02-16T03:08:23.667Z,101948.44
2023-02-16T03:11:16.751Z,101909.81
2023-02-16T03:13:47.109Z,101941.78
2023-02-16T03:16:23.596Z,101947.94
2023-02-16T03:19:09.166Z,101943.75
2023-02-16T03:21:54.838Z,101941.22
2023-02-16T03:24:45.419Z,101911.56
2023-02-16T03:27:32.691Z,101927.59
2023-02-16T03:30:01.273Z,101905.56
2023-02-16T03:32:27.983Z,101907.28
2023-02-16T03:34:54.425Z,101933.00
2023-02-16T03:37:21.014Z,101908.06
2023-02-16T03:40:06.813Z,101935.94
2023-02-16T03:42:33.251Z,101920.28
2023-02-16T03:44:59.944Z,101935.16
2023-02-16T03:47:26.343Z,101924.72
2023-02-16T03:49:52.819Z,101930.19
2023-02-16T03:52:19.202Z,101920.53
2023-02-16T03:54:45.753Z,101891.41
2023-02-16T03:57:12.169Z,101906.72
2023-02-16T03:59:38.587Z,101905.75
2023-02-16T04:02:05.079Z,101884.38
2023-02-16T04:04:31.576Z,101905.00
2023-02-16T04:06:58.061Z,101901.59
2023-02-16T04:09:24.543Z,101849.56
2023-02-16T04:12:09.537Z,101869.13
2023-02-16T04:14:35.930Z,101890.91
2023-02-16T04:17:03.833Z,101893.19
2023-02-16T04:19:30.602Z,101907.13
2023-02-16T04:21:57.052Z,101909.88
2023-02-16T04:24:23.530Z,101903.22
2023-02-16T04:26:50.070Z,101897.25
2023-02-16T04:29:16.502Z,101907.38
2023-02-16T04:31:43.228Z,101903.03
2023-02-16T04:34:09.774Z,101897.06
2023-02-16T04:36:36.228Z,101899.44
2023-02-16T04:39:02.654Z,101899.63
2023-02-16T04:41:29.150Z,101899.81
2023-02-16T04:43:55.617Z,101895.53
2023-02-16T04:46:22.129Z,101900.38
2023-02-16T04:48:48.548Z,101906.44
2023-02-16T04:51:15.239Z,101908.25
2023-02-16T04:53:41.762Z,101894.34
2023-02-16T04:56:12.606Z,101897.63
2023-02-16T04:58:39.181Z,101886.28
2023-02-16T05:01:06.145Z,101897.72
2023-02-16T05:03:33.658Z,101897.94
2023-02-16T05:06:00.305Z,101900.22
2023-02-16T05:08:27.612Z,101901.44
2023-02-16T05:11:12.794Z,101896.69
2023-02-16T05:13:58.001Z,101900.28
2023-02-16T05:16:24.936Z,101903.97
2023-02-16T05:18:51.414Z,101892.63
2023-02-16T05:21:33.326Z,101869.72
2023-02-16T05:24:02.000Z,101912.69
2023-02-16T05:26:28.910Z,101885.34
2023-02-16T05:28:55.713Z,101886.88
2023-02-16T05:31:23.758Z,101888.50
2023-02-16T05:33:50.274Z,101887.06
2023-02-16T05:36:16.710Z,101901.59
2023-02-16T05:38:43.360Z,101913.06
2023-02-16T05:41:09.976Z,101918.34
2023-02-16T05:43:36.445Z,101911.19
2023-02-16T05:46:08.254Z,101916.47
2023-02-16T05:48:34.684Z,101883.84
2023-02-16T05:51:01.295Z,101907.59
2023-02-16T05:53:27.963Z,101899.63
2023-02-16T05:55:54.371Z,101896.78
2023-02-16T05:58:20.902Z,101896.22
2023-02-16T06:00:47.286Z,101904.94
2023-02-16T06:03:13.797Z,101899.88
2023-02-16T06:05:40.315Z,101894.50
2023-02-16T06:08:06.747Z,101900.91
2023-02-16T06:10:33.151Z,101905.19
2023-02-16T06:12:59.530Z,101902.44
2023-02-16T06:15:25.912Z,101900.56
2023-02-16T06:17:52.367Z,101895.16
2023-02-16T06:20:18.976Z,101889.03
2023-02-16T06:22:45.361Z,101898.78
2023-02-16T06:25:11.827Z,101894.50
2023-02-16T06:27:38.473Z,101898.00
2023-02-16T06:30:06.108Z,101896.47
2023-02-16T06:32:33.525Z,101826.88
2023-02-16T06:35:00.001Z,101917.59
2023-02-16T06:37:26.472Z,101917.06
2023-02-16T06:39:52.925Z,101920.47
2023-02-16T06:42:19.460Z,101906.63
2023-02-16T06:44:45.973Z,101893.81
2023-02-16T06:47:12.407Z,101882.41
2023-02-16T06:49:38.910Z,101897.56
2023-02-16T06:52:05.409Z,101899.81
2023-02-16T06:54:31.795Z,101875.88
2023-02-16T06:56:58.196Z,101892.88
2023-02-16T06:59:24.606Z,101852.59
2023-02-16T07:01:51.001Z,101898.25
2023-02-16T07:04:17.419Z,101886.56
2023-02-16T07:06:43.925Z,101896.88
2023-02-16T07:09:12.409Z,101876.19
2023-02-16T07:11:39.335Z,101875.06
2023-02-16T07:14:05.765Z,101873.19
2023-02-16T07:16:35.241Z,101874.47
2023-02-16T07:19:01.694Z,101887.88
2023-02-16T07:21:28.097Z,101896.34
2023-02-16T07:23:54.507Z,101900.53
2023-02-16T07:26:21.025Z,101891.19
2023-02-16T07:28:47.450Z,101887.44
2023-02-16T07:31:18.210Z,101906.13
2023-02-16T07:33:45.184Z,101887.91
2023-02-16T07:36:13.105Z,101871.38
2023-02-16T07:38:41.834Z,101900.69
2023-02-16T07:41:09.883Z,101842.00
2023-02-16T07:43:38.089Z,101891.16
2023-02-16T07:46:05.426Z,101881.13
2023-02-16T07:48:31.922Z,101887.19
2023-02-16T07:50:58.415Z,101888.59
2023-02-16T07:53:24.817Z,101903.31
2023-02-16T07:55:51.238Z,101887.13
2023-02-16T07:58:27.277Z,101897.06
2023-02-16T08:00:54.931Z,101900.28
2023-02-16T08:03:21.446Z,101902.56
2023-02-16T08:05:48.169Z,101906.75
2023-02-16T08:08:14.584Z,101890.44
2023-02-16T08:10:41.105Z,101885.78
2023-02-16T08:13:07.487Z,101886.44
2023-02-16T08:15:33.863Z,101882.66
2023-02-16T08:18:00.292Z,101854.22
2023-02-16T08:20:43.186Z,101886.53
2023-02-16T08:23:13.068Z,101854.59
2023-02-16T08:25:39.599Z,101889.75
2023-02-16T08:28:06.942Z,101895.16
2023-02-16T08:30:34.755Z,101898.28
2023-02-16T08:33:01.826Z,101889.81
2023-02-16T08:35:31.964Z,101863.59
2023-02-16T08:38:02.367Z,101886.91
2023-02-16T08:40:29.956Z,101897.44
2023-02-16T08:42:56.374Z,101893.50
2023-02-16T08:45:22.847Z,101874.91
2023-02-16T08:47:49.428Z,101882.19
2023-02-16T08:50:16.946Z,101892.41
2023-02-16T08:52:43.356Z,101872.84
2023-02-16T08:55:09.763Z,101870.94
2023-02-16T08:57:36.265Z,101881.50
2023-02-16T09:00:22.666Z,101903.78
2023-02-16T09:02:49.983Z,101902.81
2023-02-16T09:05:16.528Z,101901.47
2023-02-16T09:07:42.919Z,101869.72
2023-02-16T09:10:09.635Z,101889.78
2023-02-16T09:12:36.599Z,101895.13
2023-02-16T09:15:03.161Z,101901.09
2023-02-16T09:17:29.621Z,101871.88
2023-02-16T09:19:56.358Z,101885.13
2023-02-16T09:22:23.474Z,101896.84
2023-02-16T09:24:49.865Z,101900.06
2023-02-16T09:27:16.392Z,101911.78
2023-02-16T09:29:43.933Z,101912.81
2023-02-16T09:32:10.426Z,101916.13
2023-02-16T09:34:37.172Z,101921.78
2023-02-16T09:37:03.617Z,101914.97
2023-02-16T09:39:30.338Z,101858.06
2023-02-16T09:42:21.258Z,101914.75
2023-02-16T09:45:11.186Z,101918.66
2023-02-16T09:47:43.079Z,101924.00
2023-02-16T09:50:38.245Z,101918.88
2023-02-16T09:53:30.338Z,101916.00
2023-02-16T09:56:07.346Z,101918.75
2023-02-16T09:58:42.330Z,101919.25
2023-02-16T10:01:20.340Z,101907.09
2023-02-16T10:03:55.943Z,101920.63
2023-02-16T10:06:31.607Z,101923.31
2023-02-16T10:09:12.669Z,101892.34
2023-02-16T10:12:04.027Z,101923.09
2023-02-16T10:14:49.663Z,101931.56
2023-02-16T10:17:28.272Z,101922.44
2023-02-16T10:20:01.168Z,101930.88
2023-02-16T10:22:36.825Z,101931.53
2023-02-16T10:25:15.214Z,101907.72
2023-02-16T10:27:44.537Z,101917.19
2023-02-16T10:30:17.984Z,101932.34
2023-02-16T10:32:59.561Z,101931.72
2023-02-16T10:35:40.358Z,101930.97
2023-02-16T10:38:18.268Z,101927.47
2023-02-16T10:41:01.378Z,101926.81
2023-02-16T10:43:39.969Z,101934.81
2023-02-16T10:46:06.890Z,101911.72
2023-02-16T10:48:33.412Z,101917.09
2023-02-16T10:51:09.404Z,101930.09
2023-02-16T10:54:05.769Z,101928.56
2023-02-16T10:56:45.537Z,101931.34
2023-02-16T10:59:18.833Z,101927.25
2023-02-16T11:01:57.668Z,101916.94
2023-02-16T11:04:38.422Z,101923.38
2023-02-16T11:07:14.270Z,101930.22
2023-02-16T11:09:42.055Z,101922.00
2023-02-16T11:12:23.958Z,101917.75
2023-02-16T11:14:53.241Z,101918.50
2023-02-16T11:17:22.541Z,101915.63
2023-02-16T11:20:24.455Z,101914.91
2023-02-16T11:22:51.775Z,101906.28
2023-02-16T11:25:18.168Z,101914.78
2023-02-16T11:27:50.730Z,101919.06
2023-02-16T11:30:23.368Z,101909.13
2023-02-16T11:32:51.583Z,101903.78
2023-02-16T11:35:18.950Z,101904.13
2023-02-16T11:37:46.377Z,101897.31
2023-02-16T11:40:51.210Z,101913.13
2023-02-16T11:43:18.290Z,101901.22
2023-02-16T11:45:56.531Z,101908.88
2023-02-16T11:48:29.175Z,101896.13
2023-02-16T11:51:00.302Z,101902.56
2023-02-16T11:53:30.610Z,101897.19
2023-02-16T11:56:12.983Z,101910.50
2023-02-16T11:58:40.412Z,101900.63
2023-02-16T12:01:23.926Z,101901.25
2023-02-16T12:04:41.528Z,101900.41
2023-02-16T12:07:29.504Z,101892.28
2023-02-16T12:10:09.463Z,101900.16
2023-02-16T12:13:00.722Z,101897.75
2023-02-16T12:15:36.520Z,101902.34
2023-02-16T12:18:34.501Z,101898.38
2023-02-16T12:21:17.358Z,101913.53
2023-02-16T12:24:03.318Z,101894.84
2023-02-16T12:26:35.836Z,101895.81
2023-02-16T12:29:21.165Z,101899.09
2023-02-16T12:32:03.335Z,101892.91
2023-02-16T12:35:14.426Z,101887.56
2023-02-16T12:38:22.153Z,101878.31
2023-02-16T12:41:11.278Z,101878.53
2023-02-16T12:43:52.256Z,101883.63
2023-02-16T12:46:35.730Z,101876.38
2023-02-16T12:49:34.430Z,101872.22
2023-02-16T12:52:12.722Z,101879.38
2023-02-16T12:54:51.517Z,101861.06
2023-02-16T12:57:22.773Z,101879.03
2023-02-16T12:59:56.581Z,101859.97
2023-02-16T13:02:50.727Z,101875.91
2023-02-16T13:05:21.151Z,101867.91
2023-02-16T13:07:52.700Z,101863.53
2023-02-16T13:10:36.246Z,101851.88
2023-02-16T13:13:35.480Z,101851.88
2023-02-16T13:16:24.109Z,101847.84
2023-02-16T13:18:58.985Z,101823.66
2023-02-16T13:21:54.927Z,101839.44
2023-02-16T13:24:41.741Z,101829.88
2023-02-16T13:27:32.179Z,101838.00
2023-02-16T13:30:15.899Z,101828.75
2023-02-16T13:33:02.642Z,101827.78
2023-02-16T13:35:57.314Z,101831.19
2023-02-16T13:38:45.261Z,101825.13
2023-02-16T13:41:38.957Z,101837.72
2023-02-16T13:44:16.226Z,101824.75
2023-02-16T13:46:52.494Z,101827.78
2023-02-16T13:49:32.986Z,101773.41
2023-02-16T13:52:00.493Z,101813.19
2023-02-16T13:54:31.396Z,101788.03
2023-02-16T13:56:57.997Z,101820.44
2023-02-16T13:59:24.460Z,101823.25
2023-02-16T14:01:54.889Z,101813.19
2023-02-16T14:04:27.560Z,101816.47
2023-02-16T14:07:03.229Z,101819.16
2023-02-16T14:09:31.021Z,101817.44
2023-02-16T14:11:57.509Z,101805.47
2023-02-16T14:14:42.144Z,101808.75
2023-02-16T14:17:14.816Z,101812.00
2023-02-16T14:20:22.808Z,101801.34
2023-02-16T14:22:57.254Z,101779.50
2023-02-16T14:25:33.048Z,101790.19
2023-02-16T14:28:21.841Z,101790.53
2023-02-16T14:30:57.954Z,101795.31
2023-02-16T14:33:50.234Z,101788.72
2023-02-16T14:36:19.819Z,101801.38
2023-02-16T14:38:52.018Z,101776.97
2023-02-16T14:41:33.437Z,101794.06
2023-02-16T14:44:06.187Z,101795.78
2023-02-16T14:46:41.765Z,101785.94
2023-02-16T14:49:35.066Z,101791.16
2023-02-16T14:52:35.938Z,101782.31
2023-02-16T14:55:27.099Z,101789.97
2023-02-16T14:58:04.109Z,101791.06
2023-02-16T15:00:37.240Z,101791.06
2023-02-16T15:03:15.028Z,101791.91
2023-02-16T15:05:42.168Z,101798.09
2023-02-16T15:08:16.248Z,101798.22
2023-02-16T15:10:47.793Z,101792.03
2023-02-16T15:13:27.745Z,101779.16
2023-02-16T15:15:57.461Z,101792.13
2023-02-16T15:18:34.099Z,101760.31
2023-02-16T15:21:00.697Z,101809.00
2023-02-16T15:23:34.681Z,101805.59
2023-02-16T15:26:14.920Z,101777.91
2023-02-16T15:28:42.105Z,101800.88
2023-02-16T15:31:18.052Z,101804.50
2023-02-16T15:33:56.908Z,101776.78
2023-02-16T15:36:39.565Z,101797.34
2023-02-16T15:39:14.837Z,101791.50
2023-02-16T15:41:46.003Z,101777.50
2023-02-16T15:44:31.176Z,101783.06
2023-02-16T15:47:14.125Z,101787.72
2023-02-16T15:49:41.135Z,101794.47
2023-02-16T15:52:18.118Z,101798.97
2023-02-16T15:54:46.704Z,101786.22
2023-02-16T15:57:30.836Z,101785.59
2023-02-16T16:00:00.153Z,101801.78
2023-02-16T16:02:38.385Z,101793.69
2023-02-16T16:05:09.955Z,101791.25
2023-02-16T16:07:40.029Z,101787.22
2023-02-16T16:10:25.663Z,101789.88
2023-02-16T16:12:54.569Z,101778.94
2023-02-16T16:15:24.804Z,101777.34
2023-02-16T16:17:53.223Z,101788.03
2023-02-16T16:20:36.758Z,101782.81
2023-02-16T16:23:24.967Z,101788.34
2023-02-16T16:25:52.928Z,101785.09
2023-02-16T16:28:28.585Z,101775.63
2023-02-16T16:31:12.230Z,101784.34
2023-02-16T16:34:17.763Z,101774.88
2023-02-16T16:36:54.577Z,101784.69
2023-02-16T16:39:32.621Z,101777.66
2023-02-16T16:42:19.211Z,101773.28
2023-02-16T16:44:55.785Z,101772.53
2023-02-16T16:47:39.105Z,101773.28
2023-02-16T16:50:36.738Z,101772.44
2023-02-16T16:53:30.805Z,101759.31
2023-02-16T16:55:57.937Z,101721.81
2023-02-16T16:58:24.464Z,101736.47
2023-02-16T17:00:50.924Z,101762.13
2023-02-16T17:03:18.564Z,101759.56
2023-02-16T17:05:45.968Z,101748.91
2023-02-16T17:08:12.737Z,101755.22
2023-02-16T17:10:40.967Z,101755.31
2023-02-16T17:13:07.855Z,101740.13
2023-02-16T17:15:34.236Z,101761.38
2023-02-16T17:18:01.923Z,101758.72
2023-02-16T17:20:28.462Z,101760.66
2023-02-16T17:22:54.863Z,101765.03
2023-02-16T17:25:21.291Z,101773.88
2023-02-16T17:27:47.863Z,101756.06
2023-02-16T17:30:14.963Z,101736.47
2023-02-16T17:32:41.384Z,101748.50
2023-02-16T17:35:08.089Z,101743.06
2023-02-16T17:37:35.549Z,101742.31
2023-02-16T17:40:03.278Z,101731.28
2023-02-16T17:42:29.820Z,101726.91
2023-02-16T17:44:56.285Z,101693.22
2023-02-16T17:47:22.779Z,101745.22
2023-02-16T17:49:49.179Z,101744.59
2023-02-16T17:52:15.627Z,101741.94
2023-02-16T17:54:42.013Z,101752.34
2023-02-16T17:57:10.352Z,101755.13
2023-02-16T17:59:36.873Z,101746.31
2023-02-16T18:02:03.350Z,101746.44
2023-02-16T18:04:29.784Z,101744.72
2023-02-16T18:06:56.229Z,101729.19
2023-02-16T18:09:24.479Z,101753.31
2023-02-16T18:11:51.670Z,101746.31
2023-02-16T18:14:18.096Z,101736.66
2023-02-16T18:16:44.573Z,101758.78
2023-02-16T18:19:14.656Z,101763.00
2023-02-16T18:21:41.094Z,101763.97
2023-02-16T18:24:07.533Z,101773.56
2023-02-16T18:26:33.925Z,101768.13
2023-02-16T18:29:00.395Z,101761.09
2023-02-16T18:31:26.861Z,101763.88
2023-02-16T18:33:53.406Z,101757.94
2023-02-16T18:36:19.827Z,101754.53
2023-02-16T18:38:46.248Z,101767.63
2023-02-16T18:41:13.319Z,101746.44
2023-02-16T18:43:39.767Z,101747.94
2023-02-16T18:46:08.524Z,101771.13
2023-02-16T18:48:35.239Z,101751.97
2023-02-16T18:51:09.781Z,101753.47
2023-02-16T18:53:37.650Z,101739.94
2023-02-16T18:56:06.025Z,101753.47
2023-02-16T18:58:33.044Z,101738.13
2023-02-16T19:00:59.594Z,101736.31
2023-02-16T19:03:26.091Z,101752.47
2023-02-16T19:05:52.699Z,101739.41
2023-02-16T19:08:19.102Z,101739.28
2023-02-16T19:10:45.476Z,101743.75
2023-02-16T19:13:11.898Z,101720.56
2023-02-16T19:15:38.386Z,101705.78
2023-02-16T19:18:04.956Z,101737.56
2023-02-16T19:20:31.378Z,101728.00
2023-02-16T19:22:57.857Z,101726.72
2023-02-16T19:25:24.577Z,101702.47
2023-02-16T19:27:51.129Z,101724.69
2023-02-16T19:30:20.581Z,101728.09
2023-02-16T19:32:47.318Z,101709.16
2023-02-16T19:35:13.800Z,101704.28
2023-02-16T19:37:40.350Z,101720.84
2023-02-16T19:40:09.247Z,101712.84
2023-02-16T19:42:36.364Z,101703.59
2023-02-16T19:45:03.221Z,101714.66
2023-02-16T19:47:29.641Z,101702.63
2023-02-16T19:49:56.084Z,101702.09
2023-02-16T19:52:22.567Z,101701.13
2023-02-16T19:54:49.439Z,101686.09
2023-02-16T19:57:16.034Z,101658.53
2023-02-16T19:59:42.553Z,101680.50
2023-02-16T20:02:11.955Z,101682.47
2023-02-16T20:04:38.452Z,101687.53
2023-02-16T20:07:05.740Z,101677.75
2023-02-16T20:09:32.159Z,101675.44
2023-02-16T20:11:58.604Z,101677.63
2023-02-16T20:14:24.979Z,101674.38
2023-02-16T20:16:51.835Z,101612.44
2023-02-16T20:19:18.770Z,101667.19
2023-02-16T20:21:46.269Z,101654.59
2023-02-16T20:24:13.897Z,101656.41
2023-02-16T20:26:44.155Z,101642.50
2023-02-16T20:29:12.875Z,101648.47
2023-02-16T20:31:49.168Z,101643.94
2023-02-16T20:34:15.878Z,101639.72
2023-02-16T20:36:42.291Z,101631.59
2023-02-16T20:39:09.111Z,101626.41
2023-02-16T20:41:35.873Z,101618.53
2023-02-16T20:44:02.952Z,101614.50
2023-02-16T20:46:29.827Z,101591.94
2023-02-16T20:48:56.740Z,101614.88
2023-02-16T20:51:23.339Z,101584.09
2023-02-16T20:53:49.962Z,101568.22
2023-02-16T20:56:21.391Z,101600.72
2023-02-16T20:58:49.386Z,101584.84
2023-02-16T21:01:24.031Z,101584.59
2023-02-16T21:03:51.656Z,101582.53
2023-02-16T21:06:19.257Z,101571.25
2023-02-16T21:08:45.807Z,101552.81
2023-02-16T21:11:12.579Z,101553.84
2023-02-16T21:13:40.558Z,101572.97
2023-02-16T21:16:08.576Z,101535.41
2023-02-16T21:18:36.869Z,101561.81
2023-02-16T21:21:04.741Z,101584.13
2023-02-16T21:23:31.238Z,101557.47
2023-02-16T21:26:02.948Z,101563.88
2023-02-16T21:28:29.801Z,101555.03
2023-02-16T21:31:01.365Z,101561.84
2023-02-16T21:33:27.807Z,101552.88
2023-02-16T21:35:56.518Z,101530.09
2023-02-16T21:38:22.932Z,101545.22
2023-02-16T21:41:15.513Z,101535.41
2023-02-16T21:43:42.431Z,101529.00
2023-02-16T21:46:09.587Z,101528.66
2023-02-16T21:48:45.128Z,101522.72
2023-02-16T21:51:13.409Z,101520.78
2023-02-16T21:53:39.891Z,101500.53
2023-02-16T21:56:20.229Z,101509.28
2023-02-16T21:58:47.303Z,101506.00
2023-02-16T22:01:14.139Z,101522.47
2023-02-16T22:03:40.875Z,101503.81
2023-02-16T22:06:09.053Z,101509.63
2023-02-16T22:08:37.896Z,101512.28
2023-02-16T22:11:10.135Z,101502.47
2023-02-16T22:13:37.680Z,101497.66
2023-02-16T22:16:17.817Z,101482.38
2023-02-16T22:18:44.745Z,101505.75
2023-02-16T22:21:11.525Z,101485.16
2023-02-16T22:23:39.103Z,101465.16
2023-02-16T22:26:07.281Z,101488.31
2023-02-16T22:28:35.248Z,101490.25
2023-02-16T22:31:08.914Z,101484.81
2023-02-16T22:33:35.393Z,101477.53
2023-02-16T22:36:07.242Z,101471.38
2023-02-16T22:38:34.639Z,101452.56
2023-02-16T22:41:05.040Z,101464.34
2023-02-16T22:43:31.934Z,101463.84
2023-02-16T22:45:58.359Z,101420.72
2023-02-16T22:48:26.258Z,101454.75
2023-02-16T22:51:00.008Z,101446.50
2023-02-16T22:53:27.062Z,101450.88
2023-02-16T22:55:54.607Z,101452.31
2023-02-16T22:58:21.460Z,101386.06
2023-02-16T23:00:49.365Z,101444.44
2023-02-16T23:03:16.297Z,101452.22
2023-02-16T23:05:42.905Z,101435.72
2023-02-16T23:08:10.515Z,101442.09
2023-02-16T23:10:38.239Z,101438.34
2023-02-16T23:13:09.448Z,101426.63
2023-02-16T23:15:36.106Z,101434.84
2023-02-16T23:18:02.586Z,101416.28
2023-02-16T23:20:29.385Z,101436.81
2023-02-16T23:22:55.800Z,101411.56
2023-02-16T23:25:34.053Z,101379.25
2023-02-16T23:28:02.607Z,101389.38
2023-02-16T23:30:30.359Z,101385.16
2023-02-16T23:32:57.190Z,101410.38
2023-02-16T23:35:23.647Z,101401.63
2023-02-16T23:37:50.129Z,101404.28
2023-02-16T23:40:16.641Z,101410.47
2023-02-16T23:42:43.026Z,101405.72
2023-02-16T23:45:09.687Z,101357.06
2023-02-16T23:47:36.188Z,101399.06
2023-02-16T23:50:02.589Z,101392.41
2023-02-16T23:52:29.023Z,101378.13
2023-02-16T23:54:55.633Z,101390.81
2023-02-16T23:57:22.096Z,101358.22
2023-02-16T23:59:48.565Z,101385.84
